Time;durP1;ratioP1;P1;durP2;ratioP2;P2;SDS_P1;SDS_P2;PMS_P1;PMS_P2;Temp;Humidity;BMP_temperature;BMP_pressure;BME280_temperature;BME280_humidity;BME280_pressure;Samples;Min_cycle;Max_cycle;Signal;HPM_P1;HPM_P2
2023/12/18 00:00:28;;;;;;;;;;;12.50;99.90;;;;;;5114406;28;19931;-79
2023/12/18 00:02:54;;;;;;;;;;;12.50;99.90;;;;;;5114372;28;19923;-77
2023/12/18 00:05:20;;;;;;;;;;;12.50;99.90;;;;;;5114478;28;19915;-77
2023/12/18 00:07:46;;;;;;;;;;;12.50;99.90;;;;;;5114536;28;19934;-77
2023/12/18 00:10:11;;;;;;;;;;;12.60;99.90;;;;;;5115034;28;19994;-77
2023/12/18 00:12:37;;;;;;;;;;;12.60;99.90;;;;;;5114731;28;19915;-76
2023/12/18 00:15:07;;;;;;;;;;;12.60;99.90;;;;;;5105140;28;20500;-76
2023/12/18 00:17:32;;;;;;;;;;;12.60;99.90;;;;;;5114519;28;19926;-77
2023/12/18 00:19:59;;;;;;;;;;;12.60;99.90;;;;;;5114179;28;20002;-75
2023/12/18 00:22:24;;;;;;;;;;;12.60;99.90;;;;;;5095611;28;19916;-76
2023/12/18 00:24:50;;;;;;;;;;;12.60;99.90;;;;;;5114208;28;20278;-75
2023/12/18 00:27:16;;;;;;;;;;;12.60;99.90;;;;;;5095472;28;20038;-75
2023/12/18 00:29:42;;;;;;;;;;;12.60;99.90;;;;;;5114428;28;20351;-75
2023/12/18 00:32:08;;;;;;;;;;;12.60;99.90;;;;;;5095331;28;19947;-76
2023/12/18 00:34:33;;;;;;;;;;;12.60;99.90;;;;;;5113836;28;19912;-76
2023/12/18 00:36:59;;;;;;;;;;;12.70;99.90;;;;;;5113840;28;20229;-76
2023/12/18 00:39:25;;;;;;;;;;;12.70;99.90;;;;;;5114221;28;19991;-76
2023/12/18 00:41:54;;;;;;;;;;;12.70;99.90;;;;;;5113496;28;20213;-76
2023/12/18 00:44:19;;;;;;;;;;;12.70;99.90;;;;;;5113826;28;20245;-76
2023/12/18 00:46:45;;;;;;;;;;;12.60;99.90;;;;;;5113727;28;19915;-76
2023/12/18 00:49:11;;;;;;;;;;;12.70;99.90;;;;;;5113904;28;19908;-76
2023/12/18 00:51:37;;;;;;;;;;;12.70;99.90;;;;;;5113509;28;20328;-76
2023/12/18 00:54:02;;;;;;;;;;;12.60;99.90;;;;;;5113461;28;19915;-76
2023/12/18 00:56:30;;;;;;;;;;;12.60;99.90;;;;;;5113338;28;19908;-76
2023/12/18 00:58:55;;;;;;;;;;;12.60;99.90;;;;;;5113220;28;19988;-77
2023/12/18 01:01:21;;;;;;;;;;;12.60;99.90;;;;;;5113604;28;20035;-76
2023/12/18 01:03:47;;;;;;;;;;;12.60;99.90;;;;;;5113767;28;19919;-76
2023/12/18 01:06:13;;;;;;;;;;;12.60;99.90;;;;;;5095159;28;19952;-76
2023/12/18 01:08:39;;;;;;;;;;;12.70;99.90;;;;;;5113176;28;19988;-76
2023/12/18 01:11:05;;;;;;;;;;;12.70;99.90;;;;;;5095013;28;19919;-74
2023/12/18 01:13:31;;;;;;;;;;;12.70;99.90;;;;;;5113393;28;19907;-77
2023/12/18 01:15:58;;;;;;;;;;;12.70;99.90;;;;;;5113361;28;19908;-76
2023/12/18 01:18:24;;;;;;;;;;;12.70;99.90;;;;;;5113335;28;20023;-77
2023/12/18 01:20:50;;;;;;;;;;;12.80;99.90;;;;;;5113366;28;20296;-77
2023/12/18 01:23:16;;;;;;;;;;;12.70;99.90;;;;;;5113019;28;20011;-75
2023/12/18 01:25:42;;;;;;;;;;;12.80;99.90;;;;;;5113159;28;20257;-76
2023/12/18 01:28:08;;;;;;;;;;;12.80;99.90;;;;;;5113074;28;19914;-77
2023/12/18 01:30:34;;;;;;;;;;;12.80;99.90;;;;;;5113154;28;19908;-76
2023/12/18 01:32:59;;;;;;;;;;;12.90;99.90;;;;;;5114106;28;19912;-77
2023/12/18 01:35:25;;;;;;;;;;;12.80;99.90;;;;;;5113466;28;19907;-77
2023/12/18 01:37:51;;;;;;;;;;;12.90;99.90;;;;;;5094593;28;20011;-76
2023/12/18 01:40:17;;;;;;;;;;;12.90;99.90;;;;;;5112856;28;20026;-76
2023/12/18 01:42:43;;;;;;;;;;;12.80;99.90;;;;;;5128389;27;19922;-76
2023/12/18 01:45:09;;;;;;;;;;;12.80;99.90;;;;;;5112907;28;20355;-76
2023/12/18 01:47:35;;;;;;;;;;;12.80;99.90;;;;;;5112844;28;19972;-77
2023/12/18 01:50:02;;;;;;;;;;;12.80;99.90;;;;;;5112751;28;19953;-75
2023/12/18 01:52:28;;;;;;;;;;;12.80;99.90;;;;;;5112775;28;20383;-77
2023/12/18 01:54:54;;;;;;;;;;;12.80;99.90;;;;;;5113022;28;19908;-77
2023/12/18 01:57:20;;;;;;;;;;;12.80;99.90;;;;;;5112965;28;19908;-77
2023/12/18 01:59:47;;;;;;;;;;;12.70;99.90;;;;;;5112360;28;19919;-76
2023/12/18 02:02:13;;;;;;;;;;;12.70;99.90;;;;;;5112700;28;20332;-76
2023/12/18 02:04:40;;;;;;;;;;;12.70;99.90;;;;;;5112750;28;19926;-76
2023/12/18 02:07:08;;;;;;;;;;;12.70;99.90;;;;;;5128295;27;20267;-76
2023/12/18 02:09:34;;;;;;;;;;;12.60;99.90;;;;;;5094064;28;19908;-78
2023/12/18 02:12:01;;;;;;;;;;;12.60;99.90;;;;;;5112374;28;19912;-77
2023/12/18 02:14:27;;;;;;;;;;;12.50;99.90;;;;;;5112616;28;19934;-73
2023/12/18 02:16:53;;;;;;;;;;;12.50;99.90;;;;;;5112127;28;20350;-77
2023/12/18 02:19:23;;;;;;;;;;;12.50;99.90;;;;;;5111409;28;19958;-76
2023/12/18 02:21:49;;;;;;;;;;;12.50;99.90;;;;;;5108718;28;19928;-71
2023/12/18 02:24:15;;;;;;;;;;;12.50;99.90;;;;;;5112008;28;19908;-77
2023/12/18 02:26:41;;;;;;;;;;;12.50;99.90;;;;;;5111838;28;19965;-72
2023/12/18 02:29:07;;;;;;;;;;;12.50;99.90;;;;;;5112515;28;20291;-75
2023/12/18 02:31:35;;;;;;;;;;;12.50;99.90;;;;;;5112399;28;19908;-71
2023/12/18 02:34:01;;;;;;;;;;;12.50;99.90;;;;;;5111107;28;19991;-75
2023/12/18 02:36:27;;;;;;;;;;;12.50;99.90;;;;;;5111388;28;19965;-77
2023/12/18 02:38:53;;;;;;;;;;;12.50;99.90;;;;;;5112241;28;19921;-71
2023/12/18 02:41:19;;;;;;;;;;;12.60;99.90;;;;;;5112049;28;19988;-77
2023/12/18 02:43:45;;;;;;;;;;;12.60;99.90;;;;;;5112308;28;19908;-77
2023/12/18 02:46:11;;;;;;;;;;;12.60;99.90;;;;;;5112181;28;19915;-76
2023/12/18 02:48:37;;;;;;;;;;;12.60;99.90;;;;;;5111978;28;19919;-74
2023/12/18 02:51:02;;;;;;;;;;;12.60;99.90;;;;;;5111902;28;19908;-76
2023/12/18 02:53:28;;;;;;;;;;;12.60;99.90;;;;;;5112286;28;19993;-77
2023/12/18 02:55:54;;;;;;;;;;;12.50;99.90;;;;;;5111845;28;19915;-77
2023/12/18 02:58:22;;;;;;;;;;;12.50;99.90;;;;;;5111686;28;19930;-77
2023/12/18 03:00:48;;;;;;;;;;;12.50;99.90;;;;;;5112213;28;19908;-77
2023/12/18 03:03:14;;;;;;;;;;;12.50;99.90;;;;;;5111944;28;19944;-78
2023/12/18 03:05:40;;;;;;;;;;;12.50;99.90;;;;;;5112392;28;19930;-77
2023/12/18 03:08:06;;;;;;;;;;;12.50;99.90;;;;;;5111885;28;20258;-77
2023/12/18 03:10:32;;;;;;;;;;;12.50;99.90;;;;;;5111580;28;19916;-77
2023/12/18 03:12:58;;;;;;;;;;;12.50;99.90;;;;;;5111999;28;19995;-75
2023/12/18 03:15:23;;;;;;;;;;;12.50;99.90;;;;;;5111809;28;20287;-77
2023/12/18 03:17:49;;;;;;;;;;;12.50;99.90;;;;;;5111823;28;19908;-77
2023/12/18 03:20:15;;;;;;;;;;;12.50;99.90;;;;;;5111883;28;19994;-77
2023/12/18 03:22:41;;;;;;;;;;;12.50;99.90;;;;;;5111556;28;19935;-77
2023/12/18 03:25:07;;;;;;;;;;;12.60;99.90;;;;;;5111516;28;19911;-75
2023/12/18 03:27:33;;;;;;;;;;;12.50;99.90;;;;;;5111648;28;19908;-77
2023/12/18 03:29:59;;;;;;;;;;;12.50;99.90;;;;;;5111847;28;20330;-77
2023/12/18 03:32:24;;;;;;;;;;;12.50;99.90;;;;;;5114921;28;20024;-75
2023/12/18 03:34:50;;;;;;;;;;;12.50;99.90;;;;;;5114833;28;19926;-77
2023/12/18 03:37:16;;;;;;;;;;;12.60;99.90;;;;;;5115252;28;19914;-77
2023/12/18 03:39:42;;;;;;;;;;;12.60;99.90;;;;;;5114072;28;20347;-77
2023/12/18 03:42:08;;;;;;;;;;;12.60;99.90;;;;;;5114800;28;19955;-77
2023/12/18 03:44:33;;;;;;;;;;;12.60;99.90;;;;;;5114877;28;20324;-77
2023/12/18 03:46:59;;;;;;;;;;;12.60;99.90;;;;;;5114655;28;19908;-76
2023/12/18 03:49:25;;;;;;;;;;;12.60;99.90;;;;;;5115263;28;19908;-77
2023/12/18 03:51:52;;;;;;;;;;;12.70;99.90;;;;;;5093100;28;19912;-77
2023/12/18 03:54:18;;;;;;;;;;;12.60;99.90;;;;;;5095889;28;20373;-77
2023/12/18 03:56:43;;;;;;;;;;;12.70;99.90;;;;;;5114431;28;20072;-77
2023/12/18 03:59:09;;;;;;;;;;;12.70;99.90;;;;;;5092573;28;20006;-77
2023/12/18 04:01:36;;;;;;;;;;;12.70;99.90;;;;;;5110680;28;20064;-77
2023/12/18 04:04:02;;;;;;;;;;;12.70;99.90;;;;;;5098455;28;19920;-77
2023/12/18 04:06:28;;;;;;;;;;;12.70;99.90;;;;;;5094645;28;20405;-76
2023/12/18 04:08:54;;;;;;;;;;;12.70;99.90;;;;;;5088653;28;19908;-76
2023/12/18 04:11:21;;;;;;;;;;;12.70;99.90;;;;;;5091498;28;19912;-76
2023/12/18 04:13:48;;;;;;;;;;;12.70;99.90;;;;;;5094169;28;19912;-73
2023/12/18 04:16:14;;;;;;;;;;;12.70;99.90;;;;;;5094460;28;19908;-77
2023/12/18 04:18:40;;;;;;;;;;;12.70;99.90;;;;;;5094457;28;20033;-76
2023/12/18 04:21:05;;;;;;;;;;;12.70;99.90;;;;;;5097697;28;19907;-76
2023/12/18 04:23:31;;;;;;;;;;;12.80;99.90;;;;;;5114375;28;20023;-77
2023/12/18 04:25:57;;;;;;;;;;;12.80;99.90;;;;;;5114894;28;19915;-75
2023/12/18 04:28:23;;;;;;;;;;;12.80;99.90;;;;;;5114825;28;19908;-76
2023/12/18 04:30:48;;;;;;;;;;;12.80;99.90;;;;;;5114003;28;19943;-77
2023/12/18 04:33:14;;;;;;;;;;;12.80;99.90;;;;;;5104891;28;19980;-76
2023/12/18 04:35:41;;;;;;;;;;;12.80;99.90;;;;;;5094473;28;19909;-77
2023/12/18 04:38:06;;;;;;;;;;;12.80;99.90;;;;;;5094400;28;20274;-77
2023/12/18 04:40:32;;;;;;;;;;;12.80;99.90;;;;;;5094252;28;20356;-76
2023/12/18 04:42:58;;;;;;;;;;;12.70;99.90;;;;;;5093373;28;20023;-76
2023/12/18 04:45:24;;;;;;;;;;;12.70;99.90;;;;;;5094877;28;19961;-76
2023/12/18 04:47:49;;;;;;;;;;;12.70;99.90;;;;;;5094437;28;19908;-75
2023/12/18 04:50:15;;;;;;;;;;;12.70;99.90;;;;;;5094550;28;20276;-76
2023/12/18 04:52:41;;;;;;;;;;;12.60;99.90;;;;;;5114456;28;20296;-77
2023/12/18 04:55:07;;;;;;;;;;;12.60;99.90;;;;;;5114829;28;19965;-75
2023/12/18 04:57:33;;;;;;;;;;;12.60;99.90;;;;;;5115152;28;19908;-77
2023/12/18 04:59:59;;;;;;;;;;;12.70;99.90;;;;;;5096947;28;19927;-74
2023/12/18 05:02:25;;;;;;;;;;;12.80;99.90;;;;;;5112305;28;19916;-77
2023/12/18 05:04:51;;;;;;;;;;;12.90;99.90;;;;;;5094671;28;20253;-77
2023/12/18 05:07:16;;;;;;;;;;;12.90;99.90;;;;;;5094524;28;19912;-77
2023/12/18 05:09:42;;;;;;;;;;;12.90;99.90;;;;;;5094392;28;19953;-76
2023/12/18 05:12:08;;;;;;;;;;;13.00;99.90;;;;;;5094186;28;20280;-76
2023/12/18 05:14:34;;;;;;;;;;;12.90;99.90;;;;;;5076482;28;19935;-75
2023/12/18 05:17:00;;;;;;;;;;;12.90;99.90;;;;;;5094945;28;19985;-76
2023/12/18 05:19:26;;;;;;;;;;;12.80;99.90;;;;;;5094855;28;20369;-76
2023/12/18 05:21:51;;;;;;;;;;;12.80;99.90;;;;;;5108026;28;19916;-76
2023/12/18 05:24:17;;;;;;;;;;;12.70;99.90;;;;;;5115088;28;19912;-76
2023/12/18 05:26:43;;;;;;;;;;;12.70;99.90;;;;;;5096602;28;20378;-76
2023/12/18 05:29:09;;;;;;;;;;;12.70;99.90;;;;;;5115540;28;19947;-75
2023/12/18 05:31:34;;;;;;;;;;;12.70;99.90;;;;;;5115009;28;20330;-76
2023/12/18 05:34:00;;;;;;;;;;;12.70;99.90;;;;;;5098999;28;19919;-73
2023/12/18 05:36:26;;;;;;;;;;;12.70;99.90;;;;;;5094852;28;20322;-76
2023/12/18 05:38:52;;;;;;;;;;;12.60;99.90;;;;;;5094880;28;19950;-76
2023/12/18 05:41:18;;;;;;;;;;;12.60;99.90;;;;;;5094245;28;19908;-76
2023/12/18 05:43:43;;;;;;;;;;;12.60;99.90;;;;;;5094999;28;20336;-75
2023/12/18 05:46:10;;;;;;;;;;;12.60;99.90;;;;;;5076894;28;19912;-75
2023/12/18 05:48:36;;;;;;;;;;;12.50;99.90;;;;;;5095771;28;19934;-75
2023/12/18 05:51:02;;;;;;;;;;;12.50;99.90;;;;;;5100903;28;20388;-70
2023/12/18 05:53:27;;;;;;;;;;;12.50;99.90;;;;;;5115212;28;19911;-72
2023/12/18 05:55:53;;;;;;;;;;;12.60;99.90;;;;;;5114337;28;19908;-73
2023/12/18 05:58:19;;;;;;;;;;;12.60;99.90;;;;;;5114614;28;19912;-75
2023/12/18 06:00:45;;;;;;;;;;;12.50;99.90;;;;;;5114670;28;19915;-74
2023/12/18 06:03:11;;;;;;;;;;;12.60;99.90;;;;;;5105510;28;19924;-68
2023/12/18 06:05:37;;;;;;;;;;;12.60;99.90;;;;;;5075253;28;19920;-73
2023/12/18 06:08:03;;;;;;;;;;;12.60;99.90;;;;;;5073783;28;19920;-66
2023/12/18 06:10:29;;;;;;;;;;;12.60;99.90;;;;;;5067992;28;19915;-75
2023/12/18 06:12:55;;;;;;;;;;;12.60;99.90;;;;;;5093836;28;20280;-74
2023/12/18 06:15:21;;;;;;;;;;;12.60;99.90;;;;;;5093568;28;19962;-70
2023/12/18 06:17:47;;;;;;;;;;;12.60;99.90;;;;;;5093526;28;19908;-84
2023/12/18 06:20:12;;;;;;;;;;;12.70;99.90;;;;;;5093809;28;19915;-83
2023/12/18 06:22:38;;;;;;;;;;;12.70;99.90;;;;;;5113760;28;19922;-82
2023/12/18 06:25:04;;;;;;;;;;;12.70;99.90;;;;;;5114207;28;19914;-81
2023/12/18 06:27:30;;;;;;;;;;;12.70;99.90;;;;;;5113432;28;20371;-82
2023/12/18 06:29:56;;;;;;;;;;;12.80;99.90;;;;;;5094859;28;19907;-79
2023/12/18 06:32:21;;;;;;;;;;;12.80;99.90;;;;;;5111766;28;19966;-82
2023/12/18 06:34:47;;;;;;;;;;;12.80;99.90;;;;;;5074287;28;19980;-81
2023/12/18 06:37:13;;;;;;;;;;;12.70;99.90;;;;;;5092995;28;19909;-82
2023/12/18 06:39:39;;;;;;;;;;;12.70;99.90;;;;;;5092575;28;19962;-81
2023/12/18 06:42:05;;;;;;;;;;;12.60;99.90;;;;;;5074392;28;19923;-81
2023/12/18 06:44:30;;;;;;;;;;;12.60;99.90;;;;;;5094191;28;20257;-77
2023/12/18 06:46:56;;;;;;;;;;;12.60;99.90;;;;;;5092860;28;19908;-76
2023/12/18 06:49:22;;;;;;;;;;;12.60;99.90;;;;;;5091716;28;19977;-85
2023/12/18 06:51:50;;;;;;;;;;;12.60;99.90;;;;;;5104418;28;19912;-80
2023/12/18 06:54:16;;;;;;;;;;;12.60;99.90;;;;;;5112579;28;20280;-81
2023/12/18 06:56:42;;;;;;;;;;;12.60;99.90;;;;;;5111967;28;19933;-81
2023/12/18 06:59:08;;;;;;;;;;;12.60;99.90;;;;;;5076909;28;19924;-82
2023/12/18 07:01:34;;;;;;;;;;;12.70;99.90;;;;;;5108660;28;20287;-83
2023/12/18 07:03:59;;;;;;;;;;;12.80;99.90;;;;;;5098047;28;19936;-83
2023/12/18 07:06:25;;;;;;;;;;;12.80;99.90;;;;;;5097390;28;19912;-84
2023/12/18 07:08:51;;;;;;;;;;;12.80;99.90;;;;;;5096957;28;19931;-82
2023/12/18 07:11:17;;;;;;;;;;;12.80;99.90;;;;;;5096591;28;19908;-84
2023/12/18 07:13:42;;;;;;;;;;;12.80;99.90;;;;;;5096001;28;19908;-80
2023/12/18 07:16:08;;;;;;;;;;;12.80;99.90;;;;;;5095712;28;19911;-80
2023/12/18 07:18:34;;;;;;;;;;;12.80;99.90;;;;;;5115296;28;19980;-80
2023/12/18 07:21:00;;;;;;;;;;;12.80;99.90;;;;;;5101516;28;19956;-84
2023/12/18 07:23:26;;;;;;;;;;;12.80;99.90;;;;;;5097184;28;19924;-83
2023/12/18 07:25:51;;;;;;;;;;;12.80;99.90;;;;;;5096323;28;20339;-86
2023/12/18 07:28:17;;;;;;;;;;;12.80;99.90;;;;;;5097233;28;19912;-85
2023/12/18 07:30:43;;;;;;;;;;;12.80;99.90;;;;;;5077416;28;20292;-84
2023/12/18 07:33:09;;;;;;;;;;;12.80;99.90;;;;;;5068577;28;19958;-83
2023/12/18 07:35:36;;;;;;;;;;;12.90;99.90;;;;;;5075522;28;19961;-83
2023/12/18 07:38:02;;;;;;;;;;;12.80;99.90;;;;;;5075799;28;19909;-82
2023/12/18 07:40:28;;;;;;;;;;;12.80;99.90;;;;;;5057998;28;19912;-83
2023/12/18 07:42:54;;;;;;;;;;;12.70;99.90;;;;;;5076125;28;19935;-83
2023/12/18 07:45:19;;;;;;;;;;;12.80;99.90;;;;;;5075316;28;19908;-83
2023/12/18 07:47:45;;;;;;;;;;;12.80;99.90;;;;;;5075280;28;19908;-78
2023/12/18 07:50:11;;;;;;;;;;;12.80;99.90;;;;;;5074920;28;20392;-83
2023/12/18 07:52:37;;;;;;;;;;;12.80;99.90;;;;;;5094348;28;19927;-82
2023/12/18 07:55:03;;;;;;;;;;;12.80;99.90;;;;;;5076723;28;19981;-81
2023/12/18 07:57:28;;;;;;;;;;;12.80;99.90;;;;;;5095590;28;19908;-83
2023/12/18 07:59:54;;;;;;;;;;;12.90;99.90;;;;;;5109559;28;19927;-83
2023/12/18 08:02:20;;;;;;;;;;;12.80;99.90;;;;;;5115859;28;19916;-82
2023/12/18 08:04:46;;;;;;;;;;;12.90;99.90;;;;;;5115986;28;19947;-82
2023/12/18 08:07:12;;;;;;;;;;;12.90;99.90;;;;;;5096841;28;20237;-81
2023/12/18 08:09:38;;;;;;;;;;;13.00;99.90;;;;;;5096965;28;19923;-81
2023/12/18 08:12:04;;;;;;;;;;;13.10;99.90;;;;;;5114959;28;20137;-80
2023/12/18 08:14:30;;;;;;;;;;;13.30;99.90;;;;;;5115077;28;20248;-81
2023/12/18 08:16:56;;;;;;;;;;;13.30;99.90;;;;;;5113767;28;19908;-81
2023/12/18 08:19:22;;;;;;;;;;;13.40;99.90;;;;;;5114999;28;19912;-80
2023/12/18 08:21:48;;;;;;;;;;;13.50;99.90;;;;;;5114936;28;19926;-80
2023/12/18 08:24:13;;;;;;;;;;;13.50;99.90;;;;;;5114637;28;19938;-81
2023/12/18 08:26:39;;;;;;;;;;;13.40;99.90;;;;;;5114657;28;19914;-81
2023/12/18 08:29:05;;;;;;;;;;;13.50;99.90;;;;;;5115029;28;20253;-80
2023/12/18 08:31:31;;;;;;;;;;;13.60;99.90;;;;;;5096370;28;19907;-80
2023/12/18 08:33:56;;;;;;;;;;;13.60;99.90;;;;;;5099076;28;19908;-80
2023/12/18 08:36:22;;;;;;;;;;;13.60;99.90;;;;;;5095865;28;20003;-79
2023/12/18 08:38:48;;;;;;;;;;;13.60;99.90;;;;;;5096049;28;19911;-79
2023/12/18 08:41:14;;;;;;;;;;;13.60;99.90;;;;;;5130091;27;19915;-80
2023/12/18 08:43:42;;;;;;;;;;;13.60;99.90;;;;;;5096026;28;20029;-80
2023/12/18 08:46:07;;;;;;;;;;;13.60;99.90;;;;;;5095494;28;19911;-79
2023/12/18 08:48:33;;;;;;;;;;;13.60;99.90;;;;;;5113709;28;19918;-79
2023/12/18 08:50:59;;;;;;;;;;;13.60;99.90;;;;;;5129286;27;19955;-78
2023/12/18 08:53:25;;;;;;;;;;;13.60;99.90;;;;;;5114083;28;19915;-78
2023/12/18 08:55:51;;;;;;;;;;;13.60;99.90;;;;;;5095060;28;19907;-76
2023/12/18 08:58:20;;;;;;;;;;;13.60;99.90;;;;;;5113238;28;20375;-79
2023/12/18 09:00:46;;;;;;;;;;;13.60;99.90;;;;;;5113678;28;20248;-80
2023/12/18 09:03:12;;;;;;;;;;;13.60;99.90;;;;;;5108740;28;19995;-80
2023/12/18 09:05:38;;;;;;;;;;;13.50;99.90;;;;;;5113040;28;19911;-79
2023/12/18 09:08:05;;;;;;;;;;;13.60;99.90;;;;;;5095051;28;20002;-78
2023/12/18 09:10:32;;;;;;;;;;;13.60;99.90;;;;;;5112383;28;19907;-78
2023/12/18 09:12:58;;;;;;;;;;;13.60;99.90;;;;;;5095708;28;19911;-79
2023/12/18 09:15:24;;;;;;;;;;;13.60;99.90;;;;;;5115518;28;20279;-79
2023/12/18 09:17:50;;;;;;;;;;;13.60;99.90;;;;;;5114212;28;20006;-78
2023/12/18 09:20:16;;;;;;;;;;;13.60;99.90;;;;;;5114089;28;20320;-81
2023/12/18 09:22:45;;;;;;;;;;;13.70;99.90;;;;;;5114739;28;19923;-78
2023/12/18 09:25:11;;;;;;;;;;;13.70;99.90;;;;;;5114019;28;19908;-79
2023/12/18 09:27:37;;;;;;;;;;;13.80;99.90;;;;;;5094973;28;19919;-81
2023/12/18 09:30:05;;;;;;;;;;;13.80;99.90;;;;;;5113329;28;20275;-80
2023/12/18 09:32:30;;;;;;;;;;;13.70;99.90;;;;;;5110491;28;19949;-81
2023/12/18 09:34:56;;;;;;;;;;;13.70;99.90;;;;;;5111886;28;19915;-81
2023/12/18 09:37:22;;;;;;;;;;;13.80;99.90;;;;;;5094592;28;19908;-80
2023/12/18 09:39:48;;;;;;;;;;;13.80;99.90;;;;;;5094794;28;20011;-79
2023/12/18 09:42:14;;;;;;;;;;;13.80;99.90;;;;;;5113254;28;19961;-81
2023/12/18 09:44:40;;;;;;;;;;;14.00;99.90;;;;;;5113620;28;19932;-81
2023/12/18 09:47:07;;;;;;;;;;;14.00;99.90;;;;;;5113068;28;19984;-81
2023/12/18 09:49:34;;;;;;;;;;;14.00;99.90;;;;;;5113221;28;19994;-78
2023/12/18 09:52:03;;;;;;;;;;;14.20;99.90;;;;;;5094535;28;19915;-79
2023/12/18 09:54:29;;;;;;;;;;;14.30;99.90;;;;;;5113124;28;19920;-80
2023/12/18 09:56:56;;;;;;;;;;;14.40;99.90;;;;;;5112837;28;19958;-80
2023/12/18 09:59:22;;;;;;;;;;;14.40;99.90;;;;;;5114527;28;20057;-80
2023/12/18 10:01:48;;;;;;;;;;;14.50;99.90;;;;;;5113028;28;19915;-79
2023/12/18 10:04:14;;;;;;;;;;;14.60;99.90;;;;;;5095255;28;19961;-78
2023/12/18 10:06:40;;;;;;;;;;;14.50;99.90;;;;;;5092804;28;19908;-77
2023/12/18 10:09:13;;;;;;;;;;;14.60;99.90;;;;;;5072773;28;19918;-79
2023/12/18 10:11:40;;;;;;;;;;;14.60;99.90;;;;;;5056821;28;19952;-80
2023/12/18 10:14:06;;;;;;;;;;;14.70;99.90;;;;;;5092055;28;19908;-78
2023/12/18 10:16:32;;;;;;;;;;;14.80;99.90;;;;;;5092305;28;19919;-78
2023/12/18 10:18:58;;;;;;;;;;;14.80;99.90;;;;;;5089645;28;19950;-78
2023/12/18 10:21:25;;;;;;;;;;;14.90;99.90;;;;;;5098223;28;19955;-80
2023/12/18 10:23:54;;;;;;;;;;;14.80;99.90;;;;;;5113165;28;19915;-79
2023/12/18 10:26:20;;;;;;;;;;;14.70;99.90;;;;;;5112353;28;19908;-75
2023/12/18 10:28:47;;;;;;;;;;;14.70;99.90;;;;;;5112546;28;20026;-79
2023/12/18 10:31:13;;;;;;;;;;;14.60;99.90;;;;;;5112591;28;19908;-79
2023/12/18 10:33:38;;;;;;;;;;;14.60;99.90;;;;;;5099507;28;19928;-78
2023/12/18 10:36:08;;;;;;;;;;;14.60;99.90;;;;;;5073574;28;19908;-78
2023/12/18 10:38:35;;;;;;;;;;;14.70;99.90;;;;;;5092202;28;20019;-79
2023/12/18 10:41:02;;;;;;;;;;;14.60;99.90;;;;;;5091104;28;19908;-76
2023/12/18 10:43:29;;;;;;;;;;;14.60;99.90;;;;;;5073636;28;20094;-79
2023/12/18 10:45:56;;;;;;;;;;;14.50;99.90;;;;;;5091937;28;19908;-78
2023/12/18 10:48:24;;;;;;;;;;;14.50;99.90;;;;;;5073441;28;19908;-78
2023/12/18 10:50:54;;;;;;;;;;;14.60;99.90;;;;;;5093107;28;19973;-78
2023/12/18 10:53:20;;;;;;;;;;;14.50;99.90;;;;;;5112264;28;19915;-78
2023/12/18 10:55:48;;;;;;;;;;;14.50;99.90;;;;;;5112388;28;19938;-78
2023/12/18 10:58:16;;;;;;;;;;;14.60;99.90;;;;;;5112244;28;19908;-79
2023/12/18 11:00:43;;;;;;;;;;;14.70;99.90;;;;;;5112048;28;20398;-79
2023/12/18 11:03:09;;;;;;;;;;;14.70;99.90;;;;;;5103516;28;19927;-78
2023/12/18 11:05:36;;;;;;;;;;;14.70;99.90;;;;;;5073345;28;19908;-79
2023/12/18 11:08:02;;;;;;;;;;;14.70;99.90;;;;;;5091950;28;20012;-78
2023/12/18 11:10:29;;;;;;;;;;;14.60;99.90;;;;;;5091935;28;19912;-77
2023/12/18 11:13:04;;;;;;;;;;;14.70;99.90;;;;;;5091561;28;19909;-79
2023/12/18 11:15:30;;;;;;;;;;;14.70;99.90;;;;;;5057552;28;20046;-78
2023/12/18 11:18:10;;;;;;;;;;;14.70;99.90;;;;;;5092264;28;20274;-80
2023/12/18 11:20:39;;;;;;;;;;;14.70;99.90;;;;;;5073848;28;20250;-79
2023/12/18 11:23:05;;;;;;;;;;;14.70;99.90;;;;;;5112308;28;20364;-79
2023/12/18 11:25:32;;;;;;;;;;;14.80;99.90;;;;;;5112619;28;19915;-79
2023/12/18 11:28:00;;;;;;;;;;;14.90;99.90;;;;;;5112494;28;19961;-79
2023/12/18 11:30:35;;;;;;;;;;;14.90;99.90;;;;;;5112740;28;20356;-80
2023/12/18 11:33:05;;;;;;;;;;;14.80;99.90;;;;;;5086731;28;20404;-79
2023/12/18 11:35:32;;;;;;;;;;;14.80;99.90;;;;;;5092250;28;19909;-79
2023/12/18 11:38:08;;;;;;;;;;;14.80;99.90;;;;;;5092035;28;20229;-80
2023/12/18 11:40:35;;;;;;;;;;;14.80;99.90;;;;;;5091974;28;19914;-79
2023/12/18 11:43:02;;;;;;;;;;;14.90;99.90;;;;;;5091687;28;19920;-78
2023/12/18 11:45:28;;;;;;;;;;;15.00;99.90;;;;;;5092178;28;20289;-80
2023/12/18 11:47:57;;;;;;;;;;;15.10;99.90;;;;;;5091737;28;19978;-80
2023/12/18 11:50:26;;;;;;;;;;;15.10;99.90;;;;;;5074470;28;19908;-79
2023/12/18 11:52:55;;;;;;;;;;;15.20;99.90;;;;;;5114669;28;20356;-80
2023/12/18 11:55:36;;;;;;;;;;;15.20;99.90;;;;;;5116486;28;19959;-80
2023/12/18 11:58:03;;;;;;;;;;;15.40;99.90;;;;;;5116226;28;19908;-80
2023/12/18 12:00:32;;;;;;;;;;;15.50;99.90;;;;;;5116192;28;19963;-80
2023/12/18 12:02:58;;;;;;;;;;;15.60;99.90;;;;;;5109082;28;20062;-80
2023/12/18 12:05:24;;;;;;;;;;;15.60;99.90;;;;;;5077630;28;19908;-79
2023/12/18 12:07:50;;;;;;;;;;;15.50;99.90;;;;;;5096146;28;19908;-79
2023/12/18 12:10:16;;;;;;;;;;;15.50;99.90;;;;;;5095718;28;20453;-79
2023/12/18 12:12:42;;;;;;;;;;;15.50;99.90;;;;;;5095639;28;19912;-81
2023/12/18 12:15:08;;;;;;;;;;;15.50;99.90;;;;;;5096418;28;19912;-81
2023/12/18 12:17:34;;;;;;;;;;;15.60;99.90;;;;;;5094941;28;19915;-80
2023/12/18 12:20:00;;;;;;;;;;;15.80;99.90;;;;;;5095053;28;19998;-80
2023/12/18 12:22:27;;;;;;;;;;;15.90;99.90;;;;;;5109500;28;19920;-80
2023/12/18 12:24:53;;;;;;;;;;;16.20;99.90;;;;;;5115501;28;20010;-80
2023/12/18 12:27:19;;;;;;;;;;;16.20;99.90;;;;;;5115135;28;20333;-80
2023/12/18 12:29:44;;;;;;;;;;;16.10;99.90;;;;;;5115652;28;19991;-81
2023/12/18 12:32:11;;;;;;;;;;;16.10;99.90;;;;;;5115355;28;20224;-81
2023/12/18 12:34:37;;;;;;;;;;;16.00;99.90;;;;;;5095373;28;19920;-82
2023/12/18 12:37:03;;;;;;;;;;;15.90;99.90;;;;;;5094742;28;19908;-80
2023/12/18 12:39:31;;;;;;;;;;;15.90;99.90;;;;;;5094766;28;19916;-80
2023/12/18 12:41:57;;;;;;;;;;;15.80;99.90;;;;;;5094485;28;19920;-80
2023/12/18 12:44:23;;;;;;;;;;;15.90;99.90;;;;;;5095051;28;19991;-80
2023/12/18 12:46:49;;;;;;;;;;;15.90;99.90;;;;;;5094333;28;19948;-79
2023/12/18 12:49:14;;;;;;;;;;;15.90;99.90;;;;;;5094029;28;19908;-77
2023/12/18 12:51:40;;;;;;;;;;;15.80;99.90;;;;;;5102358;28;20007;-79
2023/12/18 12:54:08;;;;;;;;;;;15.80;99.90;;;;;;5115520;28;19915;-81
2023/12/18 12:56:34;;;;;;;;;;;15.80;99.90;;;;;;5115220;28;19919;-77
2023/12/18 12:59:01;;;;;;;;;;;15.80;99.90;;;;;;5115027;28;20076;-78
2023/12/18 13:01:26;;;;;;;;;;;15.80;99.90;;;;;;5116265;28;19953;-79
2023/12/18 13:03:52;;;;;;;;;;;15.80;99.90;;;;;;5099686;28;20264;-77
2023/12/18 13:06:20;;;;;;;;;;;15.70;99.90;;;;;;5094622;28;19920;-78
2023/12/18 13:08:45;;;;;;;;;;;15.60;99.90;;;;;;5094528;28;19911;-77
2023/12/18 13:11:11;;;;;;;;;;;15.60;99.90;;;;;;5094965;28;19977;-77
2023/12/18 13:13:37;;;;;;;;;;;15.70;99.90;;;;;;5094915;28;19908;-78
2023/12/18 13:16:04;;;;;;;;;;;15.70;99.90;;;;;;5094698;28;19978;-77
2023/12/18 13:18:30;;;;;;;;;;;15.70;99.90;;;;;;5059957;28;19984;-76
2023/12/18 13:20:55;;;;;;;;;;;15.70;99.90;;;;;;5096754;28;19912;-76
2023/12/18 13:23:22;;;;;;;;;;;15.80;99.90;;;;;;5115245;28;19947;-77
2023/12/18 13:25:48;;;;;;;;;;;15.80;99.90;;;;;;5115434;28;20403;-77
2023/12/18 13:28:14;;;;;;;;;;;15.90;99.90;;;;;;5114967;28;20006;-77
2023/12/18 13:30:40;;;;;;;;;;;16.00;99.90;;;;;;5100343;28;19912;-78
2023/12/18 13:33:05;;;;;;;;;;;16.10;99.90;;;;;;5076298;28;19980;-76
2023/12/18 13:35:32;;;;;;;;;;;16.20;99.90;;;;;;5095042;28;19930;-78
2023/12/18 13:37:58;;;;;;;;;;;16.40;99.90;;;;;;5094389;28;20007;-78
2023/12/18 13:40:24;;;;;;;;;;;16.60;99.90;;;;;;5094393;28;19908;-78
2023/12/18 13:42:50;;;;;;;;;;;16.70;99.90;;;;;;5094438;28;20276;-79
2023/12/18 13:45:18;;;;;;;;;;;16.60;99.90;;;;;;5094081;28;19909;-79
2023/12/18 13:47:44;;;;;;;;;;;16.60;99.90;;;;;;5094045;28;20433;-77
2023/12/18 13:50:10;;;;;;;;;;;16.60;99.90;;;;;;5093484;28;19908;-79
2023/12/18 13:52:37;;;;;;;;;;;16.50;99.90;;;;;;5109864;28;20014;-79
2023/12/18 13:55:02;;;;;;;;;;;16.60;99.90;;;;;;5113606;28;19915;-79
2023/12/18 13:57:28;;;;;;;;;;;16.50;99.90;;;;;;5095128;28;20390;-78
2023/12/18 13:59:54;;;;;;;;;;;16.30;99.90;;;;;;5103613;28;19928;-78
2023/12/18 14:02:20;;;;;;;;;;;16.30;99.90;;;;;;5091433;28;20371;-79
2023/12/18 14:04:46;;;;;;;;;;;16.30;99.90;;;;;;5073143;28;19935;-79
2023/12/18 14:07:12;;;;;;;;;;;16.30;99.90;;;;;;5073267;28;19909;-78
2023/12/18 14:09:38;;;;;;;;;;;16.30;99.90;;;;;;5072821;28;19908;-78